Lomond, Canada
Current Conditions -  °F | °C
As of 11:00 PM on Wednesday 17 Dec 2014 (Local Time) from CYDF Reporting Station
Overcast Overcast  
Wind Chill: 27°   Ceiling: 2000
Heat Index: 27°   Visibility: 15mi
Dew Point: 21°   Wind: 3mph
Humidity: 80%   Direction: 150°SSE
Pressure: 30.12"   Gusts: NA
Location:  49.45°N, 57.93°W
Report Text: CYDF 180200Z 15003KT 090V200 15SM OVC020 M03/M06 A3012 RMK SC8 SLP200
Loading
Personal Weather Stations






























Interactive Weather Map New forecast layout! Learn more

10-Day Weather Forecast

Advertisements
Track Severe Weather on mobile